Time;durP1;ratioP1;P1;durP2;ratioP2;P2;SDS_P1;SDS_P2;PMS_P1;PMS_P2;Temp;Humidity;BMP_temperature;BMP_pressure;BME280_temperature;BME280_humidity;BME280_pressure;Samples;Min_cycle;Max_cycle;Signal;HPM_P1;HPM_P2
2023/10/18 00:00:46;;;;;;;1.33;1.30;;;7.60;99.90;6.80;100246;;;;567629;249;24111;-78
2023/10/18 00:03:11;;;;;;;2.07;1.80;;;7.60;99.90;6.80;100249;;;;576097;249;24110;-78
2023/10/18 00:05:41;;;;;;;1.20;1.10;;;7.60;99.90;6.80;100245;;;;571406;249;24101;-79
2023/10/18 00:08:10;;;;;;;1.10;1.10;;;7.60;99.90;6.80;100244;;;;564804;249;24140;-77
2023/10/18 00:10:38;;;;;;;1.47;1.13;;;7.60;99.90;6.80;100249;;;;565463;249;24113;-78
2023/10/18 00:13:06;;;;;;;1.60;1.13;;;7.60;99.90;6.80;100253;;;;565614;248;24112;-77
2023/10/18 00:15:34;;;;;;;4.47;1.60;;;7.60;99.90;6.80;100247;;;;565297;249;24141;-78
2023/10/18 00:18:02;;;;;;;1.90;1.63;;;7.60;99.90;6.90;100243;;;;565676;249;24133;-78
2023/10/18 00:20:30;;;;;;;1.47;1.23;;;7.60;99.90;6.90;100241;;;;566075;249;24102;-78
2023/10/18 00:22:58;;;;;;;1.80;1.50;;;7.70;99.90;7.00;100239;;;;566235;249;24074;-78
2023/10/18 00:25:25;;;;;;;1.40;1.30;;;7.80;99.90;7.10;100245;;;;565856;249;24119;-79
2023/10/18 00:27:53;;;;;;;3.97;1.07;;;7.80;99.90;7.10;100241;;;;565890;249;24152;-79
2023/10/18 00:30:21;;;;;;;1.20;1.00;;;7.90;99.90;7.10;100242;;;;565917;249;24080;-78
2023/10/18 00:32:50;;;;;;;2.00;1.13;;;7.90;99.90;7.20;100238;;;;565602;249;24100;-77
2023/10/18 00:35:21;;;;;;;2.00;1.37;;;7.90;99.90;7.10;100241;;;;565511;249;24092;-79
2023/10/18 00:37:51;;;;;;;1.10;1.00;;;7.90;99.90;7.10;100228;;;;565488;249;24086;-79
2023/10/18 00:43:07;;;;;;;1.90;1.20;;;7.90;99.90;7.10;100235;;;;570347;249;24093;-78
2023/10/18 00:45:30;;;;;;;1.50;1.40;;;7.90;99.90;7.10;100233;;;;566021;248;24083;-78
2023/10/18 00:47:58;;;;;;;3.33;1.17;;;7.90;99.90;7.10;100234;;;;566686;248;24214;-79
2023/10/18 00:50:27;;;;;;;1.43;1.30;;;7.90;99.90;7.10;100225;;;;566949;248;24134;-78
2023/10/18 00:52:53;;;;;;;3.80;1.00;;;7.80;99.90;7.10;100217;;;;566579;248;24115;-78
2023/10/18 00:55:22;;;;;;;4.57;1.50;;;7.80;99.90;7.10;100216;;;;567957;245;25170;-80
2023/10/18 00:57:52;;;;;;;1.83;1.20;;;7.80;99.90;7.10;100209;;;;566556;248;24149;-78
2023/10/18 01:00:24;;;;;;;2.07;1.40;;;7.80;99.90;7.00;100211;;;;566164;248;24201;-78
2023/10/18 01:02:48;;;;;;;3.43;1.03;;;7.80;99.90;7.00;100203;;;;564579;249;24136;-79
2023/10/18 01:05:15;;;;;;;3.00;1.23;;;7.80;99.90;7.00;100200;;;;565818;249;24187;-78
2023/10/18 01:07:42;;;;;;;3.47;1.43;;;7.70;99.90;6.90;100208;;;;564686;249;24133;-78
2023/10/18 01:10:09;;;;;;;1.20;1.10;;;7.70;99.90;6.80;100200;;;;567815;248;24097;-78
2023/10/18 01:12:38;;;;;;;1.53;1.43;;;7.60;99.90;6.70;100198;;;;565635;249;24085;-79
2023/10/18 01:15:12;;;;;;;2.63;1.43;;;7.60;99.90;6.70;100203;;;;566086;249;24157;-77
2023/10/18 01:17:42;;;;;;;1.77;1.30;;;7.40;99.90;6.60;100202;;;;567370;249;24221;-78
2023/10/18 01:22:51;;;;;;;1.73;1.60;;;7.40;99.90;6.60;100199;;;;576296;247;24173;-79
2023/10/18 01:25:19;;;;;;;1.87;1.40;;;7.40;99.90;6.60;100184;;;;566021;249;24107;-78
2023/10/18 01:27:47;;;;;;;1.30;1.17;;;7.40;99.90;6.60;100186;;;;565903;249;24102;-78
2023/10/18 01:30:16;;;;;;;2.43;1.73;;;7.40;99.90;6.50;100178;;;;565906;249;24085;-78
2023/10/18 01:32:43;;;;;;;1.50;1.40;;;7.30;99.90;6.50;100181;;;;565957;249;24178;-80
2023/10/18 01:35:13;;;;;;;7.97;1.53;;;7.30;99.90;6.40;100176;;;;567040;247;24093;-78
2023/10/18 01:37:43;;;;;;;1.63;1.53;;;7.20;99.90;6.30;100182;;;;567531;247;24181;-78
2023/10/18 01:40:21;;;;;;;2.00;1.70;;;7.20;99.90;6.20;100174;;;;565471;249;25150;-78
2023/10/18 01:42:56;;;;;;;3.00;1.60;;;7.00;99.90;6.10;100170;;;;566990;249;24164;-78
2023/10/18 01:45:22;;;;;;;3.93;1.83;;;6.90;99.90;6.00;100165;;;;565930;249;24115;-78
2023/10/18 01:47:48;;;;;;;3.23;1.77;;;6.90;99.90;6.00;100170;;;;565766;249;24132;-79
2023/10/18 01:50:19;;;;;;;2.73;1.87;;;6.70;99.90;5.90;100156;;;;565777;249;24139;-78
2023/10/18 01:52:44;;;;;;;6.30;2.00;;;6.70;99.90;6.00;100165;;;;562626;249;24125;-79
2023/10/18 01:55:12;;;;;;;1.93;1.60;;;6.70;99.90;6.00;100155;;;;565600;249;24097;-79
2023/10/18 01:57:43;;;;;;;2.03;1.80;;;6.70;99.90;6.00;100160;;;;566738;248;24101;-78
2023/10/18 02:00:55;;;;;;;2.40;1.70;;;6.80;99.90;6.10;100153;;;;566153;248;24154;-78
2023/10/18 02:02:36;;;;;;;1.90;1.70;;;6.80;99.90;6.10;100168;;;;564331;248;24135;-79
2023/10/18 02:05:07;;;;;;;3.27;1.93;;;6.80;99.90;6.10;100161;;;;566818;248;24102;-79
2023/10/18 02:07:32;;;;;;;2.27;1.83;;;6.90;99.90;6.20;100165;;;;567966;248;24104;-79
2023/10/18 02:09:59;;;;;;;6.77;2.57;;;7.00;99.90;6.20;100166;;;;565882;248;24161;-78
2023/10/18 02:12:29;;;;;;;2.83;2.03;;;7.00;99.90;6.30;100169;;;;566498;248;24086;-80
2023/10/18 02:15:00;;;;;;;3.17;1.93;;;7.10;99.90;6.40;100161;;;;566197;249;24103;-79
2023/10/18 02:17:23;;;;;;;1.93;1.80;;;7.10;99.90;6.50;100168;;;;565898;249;24154;-77
2023/10/18 02:19:52;;;;;;;3.07;2.13;;;7.30;99.90;6.60;100163;;;;571043;248;24253;-78
2023/10/18 02:22:20;;;;;;;5.13;2.23;;;7.30;99.90;6.60;100163;;;;566113;249;24151;-79
2023/10/18 02:24:50;;;;;;;2.80;1.87;;;7.40;99.90;6.60;100168;;;;566011;249;24109;-78
2023/10/18 02:27:19;;;;;;;2.80;1.40;;;7.40;99.90;6.60;100172;;;;575978;243;24186;-79
2023/10/18 02:29:46;;;;;;;2.73;1.97;;;7.40;99.90;6.60;100169;;;;565789;249;24140;-79
2023/10/18 02:32:31;;;;;;;2.17;1.97;;;7.40;99.90;6.50;100167;;;;565698;249;24165;-79
2023/10/18 02:34:51;;;;;;;4.90;2.17;;;7.30;99.90;6.40;100175;;;;565120;249;24163;-78
2023/10/18 02:37:19;;;;;;;2.00;1.83;;;7.20;99.90;6.40;100171;;;;565962;249;24212;-79
2023/10/18 02:39:49;;;;;;;3.20;1.50;;;7.20;99.90;6.40;100163;;;;565949;249;24168;-78
2023/10/18 02:42:16;;;;;;;1.57;1.47;;;7.10;99.90;6.30;100170;;;;565821;249;24151;-78
2023/10/18 02:44:44;;;;;;;2.33;1.73;;;7.10;99.90;6.30;100166;;;;565833;249;24212;-79
2023/10/18 02:47:22;;;;;;;3.90;2.03;;;7.10;99.90;6.30;100168;;;;565853;249;24081;-78
2023/10/18 02:49:39;;;;;;;2.17;1.93;;;7.10;99.90;6.30;100168;;;;564092;249;24161;-79
2023/10/18 02:52:09;;;;;;;2.73;1.90;;;7.10;99.90;6.30;100169;;;;566068;247;24120;-79
2023/10/18 02:54:35;;;;;;;4.13;1.93;;;7.10;99.90;6.30;100164;;;;565443;249;24141;-79
2023/10/18 02:57:05;;;;;;;0.90;0.90;;;7.10;99.90;6.40;100163;;;;565771;249;24188;-80
2023/10/18 02:59:31;;;;;;;5.57;2.40;;;7.10;99.90;6.30;100160;;;;565596;249;24107;-79
2023/10/18 03:02:01;;;;;;;2.37;2.03;;;7.10;99.90;6.30;100165;;;;565496;247;24088;-77
2023/10/18 03:04:29;;;;;;;3.80;1.93;;;7.10;99.90;6.30;100158;;;;565428;249;24125;-78
2023/10/18 03:06:59;;;;;;;1.80;1.70;;;7.10;99.90;6.30;100164;;;;575623;246;24147;-80
2023/10/18 03:12:01;;;;;;;5.70;2.47;;;7.00;99.90;6.20;100144;;;;566883;248;24134;-80
2023/10/18 03:19:49;;;;;;;2.57;1.93;;;6.90;99.90;6.20;100150;;;;570449;248;24116;-78
2023/10/18 03:22:14;;;;;;;4.70;2.90;;;6.90;99.90;6.20;100153;;;;571093;246;46204;-78
2023/10/18 03:24:42;;;;;;;3.77;2.37;;;6.90;99.90;6.20;100143;;;;566203;248;24103;-79
2023/10/18 03:27:12;;;;;;;3.17;2.03;;;7.00;99.90;6.30;100145;;;;566122;249;24178;-79
2023/10/18 03:29:43;;;;;;;5.27;3.40;;;7.00;99.90;6.30;100139;;;;560520;249;35278;-78
2023/10/18 03:32:08;;;;;;;4.53;2.23;;;7.10;99.90;6.40;100132;;;;576008;249;24099;-80
2023/10/18 03:34:37;;;;;;;3.10;2.53;;;7.20;99.90;6.50;100130;;;;576228;246;24108;-79
2023/10/18 03:37:04;;;;;;;2.03;1.83;;;7.20;99.90;6.50;100124;;;;567733;248;24175;-79
2023/10/18 03:39:32;;;;;;;3.57;1.50;;;7.20;99.90;6.50;100126;;;;567276;246;24104;-79
2023/10/18 03:42:01;;;;;;;4.53;2.00;;;7.30;99.90;6.60;100126;;;;565574;249;24118;-78
2023/10/18 03:44:28;;;;;;;2.33;2.10;;;7.30;99.90;6.60;100118;;;;565720;249;24112;-79
2023/10/18 03:47:05;;;;;;;4.00;2.30;;;7.40;99.90;6.50;100117;;;;575631;245;24155;-78
2023/10/18 03:49:36;;;;;;;2.33;2.13;;;7.30;99.90;6.50;100121;;;;575616;249;24111;-78
2023/10/18 03:52:45;;;;;;;2.20;2.10;;;7.20;99.90;6.40;100118;;;;565192;249;24105;-79
2023/10/18 03:54:44;;;;;;;4.47;2.00;;;7.20;99.90;6.30;100110;;;;564989;249;24106;-79
2023/10/18 03:57:06;;;;;;;2.37;1.90;;;7.10;99.90;6.30;100109;;;;565203;249;24092;-79
2023/10/18 03:59:37;;;;;;;5.97;2.30;;;7.10;99.90;6.20;100095;;;;565295;249;24141;-79
2023/10/18 04:04:44;;;;;;;2.37;2.00;;;7.00;99.90;6.10;100090;;;;576020;247;24142;-80
2023/10/18 04:07:24;;;;;;;6.03;2.20;;;6.90;99.90;6.10;100087;;;;565607;249;24190;-79
2023/10/18 04:12:29;;;;;;;4.20;2.90;;;6.90;99.90;6.00;100079;;;;565885;249;24113;-79
2023/10/18 04:14:58;;;;;;;5.93;2.63;;;6.80;99.90;6.00;100097;;;;565881;249;24078;-79
2023/10/18 04:17:37;;;;;;;3.53;2.40;;;6.80;99.90;5.90;100094;;;;565699;249;24100;-79
2023/10/18 04:22:38;;;;;;;4.50;3.33;;;6.70;99.90;5.90;100080;;;;568540;248;24142;-80
2023/10/18 04:25:14;;;;;;;5.73;2.93;;;6.70;99.90;5.90;100078;;;;566595;248;24116;-79
2023/10/18 04:27:34;;;;;;;4.30;3.53;;;6.70;99.90;5.90;100081;;;;575797;248;24102;-79
2023/10/18 04:30:04;;;;;;;4.83;3.43;;;6.70;99.90;5.90;100074;;;;567382;248;24167;-80
2023/10/18 04:32:29;;;;;;;3.67;2.97;;;6.70;99.90;5.90;100076;;;;566024;248;24120;-79
2023/10/18 04:34:59;;;;;;;4.40;3.23;;;6.70;99.90;5.90;100086;;;;565853;248;24128;-78
2023/10/18 04:37:26;;;;;;;4.67;3.33;;;6.70;99.90;5.80;100070;;;;566152;249;24093;-79
2023/10/18 04:39:56;;;;;;;9.37;4.77;;;6.60;99.90;5.80;100076;;;;565519;249;24085;-78
2023/10/18 04:42:24;;;;;;;6.80;5.03;;;6.60;99.90;5.80;100068;;;;567084;249;24171;-78
2023/10/18 04:44:50;;;;;;;7.23;4.70;;;6.50;99.90;5.80;100063;;;;565975;249;24104;-80
2023/10/18 04:47:18;;;;;;;4.80;3.70;;;6.60;99.90;5.80;100067;;;;566086;249;24076;-79
2023/10/18 04:50:00;;;;;;;7.23;4.10;;;6.60;99.90;5.90;100077;;;;566121;248;24114;-79
2023/10/18 04:52:40;;;;;;;4.00;3.40;;;6.60;99.90;5.90;100080;;;;565586;249;24108;-79
2023/10/18 04:55:08;;;;;;;6.13;3.80;;;6.70;99.90;6.00;100081;;;;566387;249;24164;-80
2023/10/18 04:57:38;;;;;;;6.63;3.67;;;6.70;99.90;6.00;100084;;;;575579;246;24156;-77
2023/10/18 05:00:10;;;;;;;3.63;2.10;;;6.80;99.90;6.10;100091;;;;565232;249;24102;-79
2023/10/18 05:02:30;;;;;;;4.57;2.93;;;6.90;99.90;6.10;100101;;;;560100;249;35346;-79
2023/10/18 05:04:58;;;;;;;4.93;2.43;;;6.90;99.90;6.20;100102;;;;565278;249;24136;-80
2023/10/18 05:07:42;;;;;;;6.33;2.40;;;7.00;99.90;6.30;100107;;;;565557;249;24129;-78
2023/10/18 05:10:19;;;;;;;2.60;2.23;;;7.10;99.90;6.40;100097;;;;565788;249;24154;-79
2023/10/18 05:12:46;;;;;;;3.40;2.30;;;7.10;99.90;6.40;100096;;;;573418;249;24134;-80
2023/10/18 05:15:09;;;;;;;5.13;2.73;;;7.20;99.90;6.40;100096;;;;565186;249;24109;-79
2023/10/18 05:17:35;;;;;;;3.50;3.10;;;7.20;99.90;6.50;100101;;;;567583;249;24207;-79
2023/10/18 05:22:45;;;;;;;6.80;3.70;;;7.30;99.90;6.70;100097;;;;561194;249;35225;-80
2023/10/18 05:25:22;;;;;;;3.23;2.90;;;7.40;99.90;6.70;100106;;;;566975;249;24101;-79
2023/10/18 05:27:59;;;;;;;4.77;2.70;;;7.50;99.90;6.80;100098;;;;565049;249;24159;-80
2023/10/18 05:30:26;;;;;;;7.00;2.37;;;7.50;99.90;6.80;100095;;;;569551;249;24098;-80
2023/10/18 05:33:02;;;;;;;5.77;2.57;;;7.60;99.90;6.80;100092;;;;568888;248;24120;-80
2023/10/18 05:35:55;;;;;;;6.03;2.93;;;7.60;99.90;6.80;100096;;;;566876;248;24123;-79
2023/10/18 05:37:59;;;;;;;3.10;1.90;;;7.60;99.90;6.80;100095;;;;573294;248;24148;-78
2023/10/18 05:43:03;;;;;;;3.53;2.80;;;7.70;99.90;7.00;100107;;;;568007;248;24143;-79
2023/10/18 05:45:34;;;;;;;3.13;2.57;;;7.70;99.90;7.00;100104;;;;567877;248;24137;-80
2023/10/18 05:48:12;;;;;;;2.43;2.07;;;7.70;99.90;7.00;100108;;;;568013;248;24144;-79
2023/10/18 05:50:34;;;;;;;2.27;2.07;;;7.70;99.90;7.00;100102;;;;567679;249;24132;-78
2023/10/18 05:53:02;;;;;;;5.73;2.63;;;7.80;99.90;7.00;100104;;;;566105;249;25153;-79
2023/10/18 05:55:32;;;;;;;2.73;2.40;;;7.80;99.90;7.00;100098;;;;567678;246;24201;-79
2023/10/18 05:58:00;;;;;;;3.57;1.93;;;7.80;99.90;7.10;100103;;;;565804;249;24092;-79
2023/10/18 06:00:24;;;;;;;5.90;2.60;;;7.80;99.90;7.10;100104;;;;566719;249;24119;-79
2023/10/18 06:02:52;;;;;;;6.37;3.03;;;7.90;99.90;7.20;100095;;;;565582;249;24095;-79
2023/10/18 06:05:21;;;;;;;2.33;2.13;;;7.90;99.90;7.30;100102;;;;565719;249;24154;-79
2023/10/18 06:07:48;;;;;;;3.83;2.53;;;8.00;99.90;7.30;100091;;;;565519;249;24093;-80
2023/10/18 06:10:19;;;;;;;7.23;2.43;;;8.00;99.90;7.40;100098;;;;565564;249;24115;-79
2023/10/18 06:12:56;;;;;;;3.53;2.30;;;8.10;99.90;7.50;100099;;;;565487;249;24081;-79
2023/10/18 06:15:34;;;;;;;2.43;2.23;;;8.30;99.90;7.60;100097;;;;565520;249;24109;-80
2023/10/18 06:17:46;;;;;;;2.43;1.90;;;8.30;99.90;7.70;100103;;;;563694;249;24130;-79
2023/10/18 06:20:36;;;;;;;7.20;2.47;;;8.40;99.90;7.80;100107;;;;564955;249;24180;-79
2023/10/18 06:22:43;;;;;;;3.30;2.23;;;8.50;99.90;7.80;100106;;;;564170;249;24178;-79
2023/10/18 06:25:25;;;;;;;2.27;2.07;;;8.60;99.90;7.90;100108;;;;565828;249;24138;-79
2023/10/18 06:27:41;;;;;;;3.27;2.23;;;8.60;99.90;8.00;100111;;;;564673;249;24093;-79
2023/10/18 06:30:17;;;;;;;6.20;2.97;;;8.70;99.90;8.10;100112;;;;576219;243;24129;-79
2023/10/18 06:32:40;;;;;;;3.80;2.43;;;8.90;99.90;8.30;100117;;;;567070;249;24153;-81
2023/10/18 06:35:15;;;;;;;4.57;2.33;;;9.00;99.90;8.40;100119;;;;565718;247;24104;-79
2023/10/18 06:37:44;;;;;;;5.13;2.83;;;9.10;99.90;8.50;100101;;;;566351;249;24157;-79
2023/10/18 06:40:22;;;;;;;5.47;2.40;;;9.20;99.90;8.50;100119;;;;565753;249;24090;-80
2023/10/18 06:42:49;;;;;;;2.80;2.50;;;9.30;99.90;8.60;100120;;;;568367;248;24156;-79
2023/10/18 06:45:18;;;;;;;5.97;2.43;;;9.40;99.90;8.90;100126;;;;567087;248;24155;-80
2023/10/18 06:47:44;;;;;;;1.77;1.67;;;9.60;99.90;9.10;100119;;;;566881;248;24140;-79
2023/10/18 06:50:26;;;;;;;2.67;2.47;;;10.00;99.90;9.20;100120;;;;568118;247;24165;-78
2023/10/18 06:52:44;;;;;;;5.07;2.40;;;9.90;99.90;9.40;100129;;;;565336;249;24125;-79
2023/10/18 06:55:15;;;;;;;5.03;2.60;;;10.10;99.90;9.60;100125;;;;566178;248;24087;-80
2023/10/18 06:57:37;;;;;;;6.70;2.23;;;10.30;99.90;9.90;100124;;;;567518;248;24119;-80
2023/10/18 07:00:12;;;;;;;2.57;2.37;;;10.80;99.90;10.20;100119;;;;567619;248;24119;-80
2023/10/18 07:02:37;;;;;;;7.07;2.77;;;10.80;99.90;10.40;100110;;;;567231;249;24122;-79
2023/10/18 07:05:04;;;;;;;3.50;2.10;;;11.10;99.90;10.80;100111;;;;567535;249;24155;-79
2023/10/18 07:07:32;;;;;;;4.53;2.57;;;11.40;99.90;11.20;100112;;;;567588;247;24135;-80
2023/10/18 07:10:04;;;;;;;6.27;2.80;;;11.80;99.90;11.60;100117;;;;567351;249;24131;-79
2023/10/18 07:12:28;;;;;;;4.00;2.07;;;12.30;99.90;11.70;100110;;;;567439;249;24101;-79
2023/10/18 07:14:56;;;;;;;4.10;2.87;;;12.40;99.90;11.60;100112;;;;576001;246;24097;-78
2023/10/18 07:17:24;;;;;;;2.80;2.03;;;12.40;99.90;11.50;100124;;;;575899;246;24128;-78
2023/10/18 07:19:59;;;;;;;3.93;1.93;;;12.30;99.90;11.30;100119;;;;567197;249;24125;-79
2023/10/18 07:22:44;;;;;;;4.27;1.83;;;12.10;99.90;11.20;100119;;;;566781;249;24117;-78
2023/10/18 07:24:54;;;;;;;5.30;2.90;;;11.90;99.90;11.10;100117;;;;568217;247;24095;-80
2023/10/18 07:27:25;;;;;;;2.87;1.87;;;11.80;99.90;11.20;100127;;;;567646;248;24183;-79
2023/10/18 07:29:50;;;;;;;6.23;2.27;;;11.90;99.90;11.30;100132;;;;567806;249;24108;-78
2023/10/18 07:32:23;;;;;;;2.10;2.00;;;12.10;99.90;11.40;100125;;;;567320;249;24157;-79
2023/10/18 07:34:53;;;;;;;3.40;2.30;;;12.10;99.90;11.40;100127;;;;567580;246;24163;-80
2023/10/18 07:37:22;;;;;;;3.03;2.20;;;12.10;99.90;11.30;100117;;;;567335;249;24189;-79
2023/10/18 07:42:20;;;;;;;4.47;2.20;;;12.20;99.90;11.60;100126;;;;562767;249;24110;-79
2023/10/18 07:44:53;;;;;;;4.80;2.10;;;12.80;99.90;12.20;100127;;;;567351;249;24150;-79
2023/10/18 07:47:18;;;;;;;7.20;2.63;;;12.80;99.90;12.40;100134;;;;567150;249;24138;-79
2023/10/18 07:49:45;;;;;;;5.17;2.30;;;13.10;99.90;12.40;100131;;;;567053;249;24092;-78
2023/10/18 07:52:13;;;;;;;5.03;2.17;;;13.10;99.90;12.20;100119;;;;567198;247;24132;-79
2023/10/18 07:54:41;;;;;;;2.77;1.83;;;12.80;99.90;12.00;100129;;;;567853;248;24104;-78
2023/10/18 07:57:15;;;;;;;2.80;1.53;;;12.60;99.90;11.80;100127;;;;568094;248;25130;-79
2023/10/18 07:59:47;;;;;;;2.83;2.17;;;12.30;99.90;11.50;100131;;;;568560;248;24132;-78
2023/10/18 08:02:26;;;;;;;3.80;2.17;;;12.30;99.90;11.20;100134;;;;568139;248;24159;-78
2023/10/18 08:04:43;;;;;;;3.57;1.77;;;12.00;99.90;11.00;100145;;;;573690;249;24099;-79
2023/10/18 08:07:11;;;;;;;5.10;2.10;;;11.80;99.90;10.80;100142;;;;577803;244;24128;-79
2023/10/18 08:09:41;;;;;;;3.27;1.87;;;11.60;99.90;10.70;100149;;;;575547;249;24138;-80
2023/10/18 08:12:19;;;;;;;4.30;1.93;;;11.40;99.90;10.60;100135;;;;574225;249;24144;-79
2023/10/18 08:14:37;;;;;;;7.50;2.37;;;11.30;99.90;10.60;100144;;;;563006;249;24098;-81
2023/10/18 08:17:09;;;;;;;2.40;2.20;;;11.20;99.90;10.60;100142;;;;567904;249;24137;-79
2023/10/18 08:19:43;;;;;;;4.85;2.85;;;11.20;99.90;10.50;100149;;;;562690;249;35245;-80
2023/10/18 08:22:22;;;;;;;3.07;2.20;;;11.20;99.90;10.50;100155;;;;567896;249;24145;-79
2023/10/18 08:24:41;;;;;;;5.13;2.10;;;11.20;99.90;10.50;100147;;;;567290;249;24127;-80
2023/10/18 08:27:10;;;;;;;4.63;2.60;;;11.20;99.90;10.50;100150;;;;567468;245;24098;-79
2023/10/18 08:29:37;;;;;;;2.77;2.40;;;11.20;99.90;10.70;100151;;;;567264;249;24087;-80
2023/10/18 08:32:18;;;;;;;2.67;2.20;;;11.30;99.90;11.00;100154;;;;567400;249;24192;-79
2023/10/18 08:34:49;;;;;;;3.03;2.27;;;11.60;99.90;11.20;100156;;;;567392;249;24150;-79
2023/10/18 08:37:16;;;;;;;3.33;2.33;;;11.90;99.90;11.20;100154;;;;576075;246;24126;-79
2023/10/18 08:39:55;;;;;;;2.47;1.80;;;12.00;99.90;11.20;100164;;;;567432;249;24120;-79
2023/10/18 08:42:12;;;;;;;4.07;1.87;;;12.00;99.90;11.10;100156;;;;567574;246;24164;-79
2023/10/18 08:44:40;;;;;;;6.80;1.90;;;11.90;99.90;11.10;100148;;;;567403;245;24153;-80
2023/10/18 08:50:14;;;;;;;2.23;1.80;;;12.10;99.90;11.60;100156;;;;572952;249;24115;-78
2023/10/18 08:52:19;;;;;;;2.03;1.60;;;13.10;99.90;12.60;100156;;;;566728;247;24155;-80
2023/10/18 08:54:43;;;;;;;2.13;1.97;;;13.70;99.90;13.10;100167;;;;567087;247;24194;-80
2023/10/18 08:57:11;;;;;;;3.07;1.80;;;13.70;99.90;13.80;100160;;;;567048;249;24095;-80
2023/10/18 08:59:50;;;;;;;3.87;1.77;;;14.50;99.90;13.90;100159;;;;575670;249;24145;-80
2023/10/18 09:02:18;;;;;;;3.73;1.60;;;14.70;99.90;13.70;100165;;;;563242;249;24322;-81
2023/10/18 09:04:53;;;;;;;3.83;2.00;;;14.30;99.90;13.40;100173;;;;567786;249;24161;-80
2023/10/18 09:07:24;;;;;;;4.53;1.70;;;14.30;99.90;13.20;100154;;;;568571;248;24094;-80
2023/10/18 09:09:57;;;;;;;1.97;1.80;;;14.00;99.90;13.00;100155;;;;568479;247;24098;-80
2023/10/18 09:18:04;;;;;;;3.63;2.17;;;13.70;99.90;12.80;100161;;;;563578;248;24108;-79
2023/10/18 09:20:27;;;;;;;2.87;1.90;;;13.60;99.90;12.70;100151;;;;567503;248;24171;-80
2023/10/18 09:23:01;;;;;;;3.80;2.17;;;13.50;99.90;13.10;100166;;;;567330;248;24179;-79
2023/10/18 09:25:24;;;;;;;2.53;1.63;;;13.80;99.90;13.50;100172;;;;567497;249;24117;-80
2023/10/18 09:27:51;;;;;;;4.13;1.97;;;14.10;99.90;13.50;100167;;;;567266;249;24092;-79
2023/10/18 09:30:19;;;;;;;4.20;1.60;;;14.30;99.90;13.50;100170;;;;576415;243;24099;-79
2023/10/18 09:32:47;;;;;;;4.50;1.87;;;14.30;99.90;13.50;100165;;;;567799;249;24078;-79
2023/10/18 09:35:25;;;;;;;2.77;2.23;;;14.40;99.90;13.60;100170;;;;567610;249;24134;-80
2023/10/18 09:37:45;;;;;;;6.30;2.03;;;14.40;99.90;13.60;100169;;;;562650;249;24132;-78
2023/10/18 09:40:13;;;;;;;3.83;1.63;;;14.20;99.90;13.40;100173;;;;567737;249;24136;-78
2023/10/18 09:42:44;;;;;;;6.10;1.97;;;14.20;99.90;13.20;100169;;;;567675;245;24094;-80
2023/10/18 09:45:09;;;;;;;3.13;2.03;;;14.10;99.90;13.50;100186;;;;567499;249;24117;-79
2023/10/18 09:47:37;;;;;;;4.53;1.97;;;14.20;99.90;13.40;100174;;;;567334;249;24104;-81
2023/10/18 09:50:09;;;;;;;4.20;1.97;;;14.20;99.90;13.20;100179;;;;567425;249;24134;-80
2023/10/18 09:52:36;;;;;;;2.53;1.90;;;14.00;99.90;13.00;100190;;;;570359;247;46558;-80
2023/10/18 09:55:00;;;;;;;2.40;1.80;;;13.80;99.90;12.80;100187;;;;565091;247;24103;-79
2023/10/18 09:57:35;;;;;;;4.17;1.87;;;13.60;99.90;12.60;100187;;;;572856;249;24082;-79
2023/10/18 09:59:57;;;;;;;3.20;2.00;;;13.50;99.90;12.60;100188;;;;566891;249;24075;-78
2023/10/18 10:02:25;;;;;;;2.50;1.63;;;13.50;99.90;12.80;100190;;;;567313;249;24241;-78
2023/10/18 10:04:56;;;;;;;1.90;1.80;;;13.70;99.90;13.10;100182;;;;567458;249;24103;-79
2023/10/18 10:07:41;;;;;;;5.63;1.87;;;14.00;99.90;13.30;100180;;;;567370;249;24097;-80
2023/10/18 10:10:17;;;;;;;2.40;1.20;;;14.30;99.90;13.70;100182;;;;567103;246;24128;-78
2023/10/18 10:12:42;;;;;;;6.33;2.33;;;14.60;99.90;13.90;100181;;;;566602;249;24135;-77
2023/10/18 10:15:13;;;;;;;4.30;1.90;;;14.70;99.90;13.80;100193;;;;567466;245;24139;-79
2023/10/18 10:17:37;;;;;;;2.37;1.87;;;14.70;99.90;13.60;100191;;;;567292;248;25209;-80
2023/10/18 10:20:21;;;;;;;4.23;1.83;;;14.40;99.90;13.50;100202;;;;568020;248;24119;-79
2023/10/18 10:22:33;;;;;;;4.67;1.90;;;14.40;99.90;13.70;100204;;;;568330;248;24131;-79
2023/10/18 10:25:11;;;;;;;4.90;2.30;;;14.50;99.90;13.80;100195;;;;563624;248;24091;-79
2023/10/18 10:32:45;;;;;;;6.00;2.03;;;14.90;99.90;14.20;100200;;;;564645;248;24111;-80
2023/10/18 10:35:16;;;;;;;2.40;1.90;;;14.90;99.90;14.20;100187;;;;568317;249;24083;-80
2023/10/18 10:37:53;;;;;;;7.83;2.00;;;15.00;99.90;14.30;100194;;;;567850;249;24076;-78
2023/10/18 10:43:01;;;;;;;7.23;1.97;;;15.00;99.90;14.30;100185;;;;566614;249;24125;-79
2023/10/18 10:45:37;;;;;;;3.73;2.07;;;15.00;99.90;14.20;100181;;;;563570;249;24077;-78
2023/10/18 10:51:08;;;;;;;6.33;2.17;;;14.60;99.90;13.90;100174;;;;567799;249;24067;-77
2023/10/18 10:53:48;;;;;;;3.50;1.63;;;14.30;99.90;13.50;100172;;;;567384;249;24107;-78
2023/10/18 10:56:29;;;;;;;4.47;2.00;;;14.20;99.90;13.30;100166;;;;568090;247;24155;-78
2023/10/18 11:02:06;;;;;;;4.50;2.03;;;13.80;99.90;12.80;100174;;;;576399;246;24155;-78
2023/10/18 11:04:15;;;;;;;5.87;1.63;;;13.60;99.90;12.70;100176;;;;568832;242;24126;-77
2023/10/18 11:06:46;;;;;;;4.73;1.77;;;13.40;99.90;12.50;100158;;;;566511;249;24086;-78
2023/10/18 11:09:18;;;;;;;2.83;1.40;;;13.00;99.90;12.30;100173;;;;567457;249;24117;-79
2023/10/18 11:11:46;;;;;;;6.50;1.30;;;12.90;99.90;12.20;100161;;;;575859;247;24151;-77
2023/10/18 11:14:22;;;;;;;7.33;1.87;;;12.80;99.90;12.10;100168;;;;567152;249;24139;-78
2023/10/18 11:17:03;;;;;;;2.93;2.30;;;12.80;99.90;12.10;100161;;;;567720;249;24176;-80
2023/10/18 11:19:18;;;;;;;3.37;1.63;;;12.90;99.90;12.40;100159;;;;567409;249;24108;-79
2023/10/18 11:21:46;;;;;;;4.43;1.90;;;12.90;99.90;12.60;100152;;;;563440;249;24306;-79
2023/10/18 11:24:13;;;;;;;6.63;1.40;;;13.20;99.90;12.70;100150;;;;567287;249;24112;-79
2023/10/18 11:26:44;;;;;;;0.80;0.80;;;13.40;99.90;12.80;100133;;;;567366;249;24084;-78
2023/10/18 11:29:12;;;;;;;0.93;0.80;;;13.40;99.90;12.60;100128;;;;567865;248;24086;-79
2023/10/18 11:31:44;;;;;;;1.13;1.03;;;13.30;99.90;12.30;100145;;;;568969;248;24115;-79
2023/10/18 11:34:07;;;;;;;3.10;1.00;;;13.10;99.90;12.10;100150;;;;568257;248;24100;-78
2023/10/18 11:36:35;;;;;;;2.93;1.60;;;12.90;99.90;11.80;100154;;;;568480;248;24118;-79
2023/10/18 11:41:44;;;;;;;4.97;1.10;;;12.30;99.90;11.40;100144;;;;568192;248;24092;-79
2023/10/18 11:44:16;;;;;;;4.03;1.60;;;12.10;99.90;11.30;100139;;;;576610;248;24097;-78
2023/10/18 11:46:50;;;;;;;5.63;1.23;;;12.00;99.90;11.20;100138;;;;567652;249;24094;-79
2023/10/18 11:49:21;;;;;;;2.43;1.17;;;12.00;99.90;11.30;100153;;;;567653;249;24170;-79
2023/10/18 11:51:53;;;;;;;2.83;1.00;;;11.90;99.90;11.30;100147;;;;567957;249;24092;-78
2023/10/18 11:54:32;;;;;;;1.40;0.93;;;11.90;99.90;11.20;100149;;;;567613;245;24154;-79
2023/10/18 11:57:03;;;;;;;1.37;1.03;;;11.90;99.90;11.20;100147;;;;576111;245;24134;-79
2023/10/18 11:59:31;;;;;;;1.43;1.30;;;11.80;99.90;11.10;100151;;;;567440;249;24083;-78
2023/10/18 12:02:04;;;;;;;2.37;1.00;;;11.80;99.90;11.00;100151;;;;567864;249;24086;-79
2023/10/18 12:04:28;;;;;;;1.43;0.97;;;11.70;99.90;11.10;100146;;;;576490;242;24076;-78
2023/10/18 12:06:56;;;;;;;1.57;1.17;;;11.80;99.90;11.20;100149;;;;567787;247;24114;-78
2023/10/18 12:11:58;;;;;;;2.00;0.90;;;12.00;99.90;11.40;100138;;;;567349;249;24098;-80
2023/10/18 12:14:22;;;;;;;2.53;1.30;;;12.10;99.90;11.40;100136;;;;566881;249;24103;-78
2023/10/18 12:16:50;;;;;;;2.50;1.43;;;12.10;99.90;11.30;100137;;;;567301;249;24082;-78
2023/10/18 12:19:18;;;;;;;2.07;1.10;;;12.00;99.90;11.30;100134;;;;576018;249;24181;-78
2023/10/18 12:21:54;;;;;;;1.73;1.07;;;12.00;99.90;11.30;100125;;;;567592;249;24138;-78
2023/10/18 12:24:14;;;;;;;3.17;1.03;;;12.00;99.90;11.40;100130;;;;567512;249;25171;-78